Time;durP1;ratioP1;P1;durP2;ratioP2;P2;SDS_P1;SDS_P2;PMS_P1;PMS_P2;Temp;Humidity;BMP_temperature;BMP_pressure;BME280_temperature;BME280_humidity;BME280_pressure;Samples;Min_cycle;Max_cycle;Signal;HPM_P1;HPM_P2
2023/07/13 17:50:49;;;;;;;4.45;1.85;;;;;;;20.13;100.00;101279.72;5124155;27;20196;-61
2023/07/13 17:53:18;;;;;;;9.50;1.90;;;;;;;20.28;100.00;101283.88;5107560;27;20262;-62
2023/07/13 17:55:45;;;;;;;8.45;2.13;;;;;;;20.25;100.00;101276.06;5102491;28;20060;-61
2023/07/13 17:58:13;;;;;;;2.80;1.00;;;;;;;20.07;100.00;101274.81;5100817;28;20043;-62
2023/07/13 18:04:22;;;;;;;6.28;1.60;;;;;;;20.19;100.00;101279.25;5107016;27;20039;-62
2023/07/13 18:06:54;;;;;;;7.35;2.42;;;;;;;19.97;100.00;101294.31;5101096;28;20056;-63
2023/07/13 18:09:25;;;;;;;7.13;1.88;;;;;;;20.13;100.00;101291.31;5124894;27;20742;-63
2023/07/13 18:11:54;;;;;;;5.43;1.80;;;;;;;20.25;100.00;101289.47;5109286;27;20108;-63
2023/07/13 18:14:22;;;;;;;5.93;2.17;;;;;;;20.26;100.00;101295.72;5103234;27;20078;-64
2023/07/13 18:16:54;;;;;;;7.80;2.22;;;;;;;20.22;100.00;101315.72;5103531;27;20450;-63
2023/07/13 18:19:32;;;;;;;6.07;1.40;;;;;;;20.00;100.00;101312.00;5109916;27;20042;-61
2023/07/13 18:22:02;;;;;;;6.30;2.80;;;;;;;20.01;100.00;101312.84;5108846;28;20075;-62
2023/07/13 18:24:30;;;;;;;5.72;1.45;;;;;;;19.87;100.00;101313.91;5111306;28;20051;-62
2023/07/13 18:26:56;;;;;;;4.78;2.42;;;;;;;19.81;100.00;101312.53;5102949;27;20071;-62
2023/07/13 18:29:23;;;;;;;8.57;2.63;;;;;;;19.74;100.00;101305.91;5102702;28;20050;-62
2023/07/13 18:31:50;;;;;;;6.35;1.73;;;;;;;19.60;100.00;101305.13;5099255;28;20052;-61
2023/07/13 18:34:17;;;;;;;10.77;1.60;;;;;;;19.52;100.00;101312.03;5099650;28;20055;-62
2023/07/13 18:36:45;;;;;;;8.68;2.50;;;;;;;19.62;100.00;101305.88;5105262;27;20079;-62
2023/07/13 18:39:15;;;;;;;7.05;1.52;;;;;;;19.56;100.00;101309.00;5099852;28;20059;-61
2023/07/13 18:41:44;;;;;;;16.58;9.48;;;;;;;19.50;100.00;101311.28;5101757;28;20047;-62
2023/07/13 18:44:12;;;;;;;7.55;2.03;;;;;;;19.32;100.00;101306.34;5092818;28;20723;-61
2023/07/13 18:46:39;;;;;;;5.95;2.17;;;;;;;19.33;100.00;101312.56;5096030;28;20070;-62
2023/07/13 18:49:08;;;;;;;7.57;1.80;;;;;;;19.38;100.00;101305.88;5099103;28;20303;-62
2023/07/13 18:51:35;;;;;;;6.47;1.52;;;;;;;19.31;100.00;101309.13;5100887;27;20694;-62
2023/07/13 18:54:01;;;;;;;5.72;1.90;;;;;;;19.37;100.00;101311.34;5103804;28;20168;-63
2023/07/13 18:56:28;;;;;;;6.03;1.55;;;;;;;19.41;100.00;101318.19;5090212;28;20089;-62
2023/07/13 18:58:54;;;;;;;5.05;2.60;;;;;;;19.42;100.00;101312.72;5096127;28;20050;-62
2023/07/13 19:01:34;;;;;;;6.13;2.00;;;;;;;19.37;100.00;101330.97;5090844;28;20131;-62
2023/07/13 19:04:16;;;;;;;3.72;1.65;;;;;;;19.33;100.00;101324.13;5081685;28;20048;-62
2023/07/13 19:06:42;;;;;;;6.05;1.65;;;;;;;19.23;100.00;101323.94;5084382;28;20048;-60
2023/07/13 19:09:12;;;;;;;6.13;1.58;;;;;;;19.14;100.00;101323.75;5086239;28;20048;-61
2023/07/13 19:11:38;;;;;;;4.75;1.85;;;;;;;19.08;100.00;101335.78;5085636;28;20083;-63
2023/07/13 19:14:11;;;;;;;5.90;1.88;;;;;;;19.04;100.00;101342.31;5086606;28;20079;-63
2023/07/13 19:16:38;;;;;;;4.28;1.95;;;;;;;18.89;100.00;101337.09;5093760;28;20138;-63
2023/07/13 19:19:13;;;;;;;3.53;2.35;;;;;;;18.86;100.00;101342.69;5078124;28;20048;-62
2023/07/13 19:21:40;;;;;;;7.75;2.35;;;;;;;18.70;100.00;101347.34;5081876;28;20045;-63
2023/07/13 19:24:19;;;;;;;3.63;2.10;;;;;;;18.50;100.00;101344.28;5075209;28;20182;-62
2023/07/13 19:26:50;;;;;;;6.95;1.88;;;;;;;18.52;100.00;101349.50;5078728;28;20131;-61
2023/07/13 19:29:20;;;;;;;5.90;2.13;;;;;;;18.39;100.00;101344.19;5079874;28;20127;-62
2023/07/13 19:31:46;;;;;;;9.43;2.13;;;;;;;18.45;100.00;101343.72;5084537;28;20047;-62
2023/07/13 19:34:22;;;;;;;3.72;1.85;;;;;;;18.49;100.00;101350.59;5081554;28;20052;-62
2023/07/13 19:37:04;;;;;;;5.15;1.73;;;;;;;18.59;100.00;101355.31;5080515;28;20041;-62
2023/07/13 19:39:38;;;;;;;4.82;2.42;;;;;;;18.51;100.00;101364.72;5082688;28;20093;-63
2023/07/13 19:42:13;;;;;;;4.65;1.70;;;;;;;18.48;100.00;101375.63;5084242;28;20089;-62
2023/07/13 19:44:41;;;;;;;4.65;2.40;;;;;;;18.40;100.00;101379.81;5089685;28;20048;-63
2023/07/13 19:47:12;;;;;;;4.93;2.78;;;;;;;18.30;100.00;101382.25;5086431;28;20051;-62
2023/07/13 19:49:39;;;;;;;5.72;2.05;;;;;;;18.25;100.00;101389.75;5083111;28;20612;-62
2023/07/13 19:52:15;;;;;;;8.30;3.33;;;;;;;18.20;100.00;101386.53;5082053;28;20191;-62
2023/07/13 19:54:41;;;;;;;3.80;2.08;;;;;;;18.20;100.00;101398.09;5084581;28;20047;-61
2023/07/13 19:57:16;;;;;;;4.03;2.30;;;;;;;18.10;100.00;101395.19;5077679;28;20077;-61
2023/07/13 19:59:45;;;;;;;3.97;2.13;;;;;;;18.12;100.00;101401.28;5086741;28;20044;-61
2023/07/13 20:02:12;;;;;;;5.43;2.80;;;;;;;18.08;100.00;101399.78;5086112;28;20476;-61
2023/07/13 20:04:39;;;;;;;7.07;2.53;;;;;;;18.13;100.00;101399.47;5083531;28;20056;-62
2023/07/13 20:07:15;;;;;;;4.78;2.42;;;;;;;17.97;100.00;101407.66;5079827;28;20451;-61
2023/07/13 20:09:47;;;;;;;9.60;2.28;;;;;;;17.92;100.00;101415.13;5081124;28;20159;-62
2023/07/13 20:12:17;;;;;;;5.82;2.38;;;;;;;17.88;100.00;101408.25;5082646;28;20063;-61
2023/07/13 20:14:46;;;;;;;7.35;2.63;;;;;;;17.91;100.00;101413.41;5083682;28;20055;-61
2023/07/13 20:17:40;;;;;;;2.80;1.83;;;;;;;17.89;100.00;101409.97;5083480;28;20076;-61
2023/07/13 20:20:24;;;;;;;3.10;1.88;;;;;;;17.77;100.00;101415.16;5085789;28;20036;-60
2023/07/13 20:22:52;;;;;;;7.65;2.40;;;;;;;17.76;100.00;101416.09;5080547;28;20063;-62
2023/07/13 20:25:28;;;;;;;4.65;2.95;;;;;;;17.76;100.00;101421.44;5088564;28;20085;-60
2023/07/13 20:27:56;;;;;;;7.10;2.80;;;;;;;17.71;100.00;101423.56;5091200;28;20060;-61
2023/07/13 20:30:24;;;;;;;5.80;2.83;;;;;;;17.61;100.00;101422.44;5091117;28;20123;-62
2023/07/13 20:32:55;;;;;;;4.78;2.30;;;;;;;17.60;100.00;101421.59;5096966;28;20083;-60
2023/07/13 20:35:23;;;;;;;7.70;2.78;;;;;;;17.60;100.00;101415.38;5082170;28;20620;-63
2023/07/13 20:37:50;;;;;;;7.32;2.50;;;;;;;17.57;100.00;101418.25;5082539;28;20044;-62
2023/07/13 20:40:19;;;;;;;5.93;2.08;;;;;;;17.63;100.00;101428.53;5087624;28;20517;-60
2023/07/13 20:42:46;;;;;;;5.95;2.53;;;;;;;17.59;100.00;101429.72;5082019;28;20048;-62
2023/07/13 20:45:13;;;;;;;7.25;2.28;;;;;;;17.55;100.00;101428.19;5081367;28;20051;-63
2023/07/13 20:47:40;;;;;;;7.45;2.33;;;;;;;17.51;100.00;101434.69;5095869;28;20043;-63
2023/07/13 20:50:32;;;;;;;3.58;2.00;;;;;;;17.60;100.00;101431.41;5088018;28;20058;-62
2023/07/13 20:53:01;;;;;;;7.10;2.72;;;;;;;17.67;100.00;101427.41;5083647;28;20048;-62
2023/07/13 20:55:30;;;;;;;9.60;2.50;;;;;;;17.69;100.00;101430.81;5086034;28;20488;-63
2023/07/13 20:57:57;;;;;;;3.67;2.03;;;;;;;17.80;100.00;101428.31;5085093;28;20058;-62
2023/07/13 21:00:26;;;;;;;2.90;2.00;;;;;;;17.86;100.00;101436.88;5084598;28;20050;-63
2023/07/13 21:03:01;;;;;;;3.83;1.70;;;;;;;17.87;100.00;101433.28;5084687;28;20078;-61
2023/07/13 21:05:35;;;;;;;5.20;2.05;;;;;;;17.93;100.00;101435.56;5084757;28;20052;-63
2023/07/13 21:08:02;;;;;;;5.72;1.90;;;;;;;17.94;100.00;101431.94;5082845;28;20071;-60
2023/07/13 21:10:30;;;;;;;5.25;2.25;;;;;;;17.90;100.00;101438.41;5085923;28;20036;-63
2023/07/13 21:12:56;;;;;;;6.60;2.10;;;;;;;17.95;100.00;101441.69;5088375;28;20074;-62
2023/07/13 21:15:29;;;;;;;3.65;2.15;;;;;;;17.91;100.00;101442.81;5080588;28;20059;-63
2023/07/13 21:17:58;;;;;;;4.32;2.33;;;;;;;17.79;100.00;101447.97;5086329;28;20044;-62
2023/07/13 21:20:40;;;;;;;8.50;2.40;;;;;;;17.63;100.00;101447.25;5084469;28;20094;-63
2023/07/13 21:23:37;;;;;;;5.05;2.30;;;;;;;17.54;100.00;101442.50;5084325;28;20039;-62
2023/07/13 21:26:06;;;;;;;6.93;2.00;;;;;;;17.56;100.00;101451.28;5078350;28;20135;-62
2023/07/13 21:28:38;;;;;;;5.47;1.95;;;;;;;17.48;100.00;101435.75;5079116;28;20064;-63
2023/07/13 21:31:33;;;;;;;4.63;2.00;;;;;;;17.37;100.00;101441.75;5089851;28;20044;-63
2023/07/13 21:34:06;;;;;;;8.68;2.40;;;;;;;17.35;100.00;101449.03;5086526;28;20395;-63
2023/07/13 21:36:33;;;;;;;8.35;2.97;;;;;;;17.38;100.00;101454.16;5100583;28;20451;-62
2023/07/13 21:39:03;;;;;;;5.10;2.58;;;;;;;17.33;100.00;101458.94;5076628;28;20048;-63
2023/07/13 21:41:35;;;;;;;7.45;2.22;;;;;;;17.27;100.00;101456.66;5087313;28;20048;-62
2023/07/13 21:44:15;;;;;;;10.48;1.88;;;;;;;17.23;100.00;101460.50;5085360;28;20055;-62
2023/07/13 21:46:42;;;;;;;6.83;2.47;;;;;;;17.03;100.00;101462.59;5081361;28;20082;-63
2023/07/13 21:49:08;;;;;;;4.75;2.80;;;;;;;16.88;100.00;101467.03;5089091;28;20102;-63
2023/07/13 21:51:35;;;;;;;4.68;2.55;;;;;;;16.83;100.00;101465.56;5087920;28;20147;-64
2023/07/13 21:54:01;;;;;;;7.88;3.17;;;;;;;16.84;100.00;101475.31;5078167;28;20044;-64
2023/07/13 21:56:28;;;;;;;2.35;1.77;;;;;;;16.84;100.00;101470.81;5078927;28;20040;-63
2023/07/13 21:58:54;;;;;;;6.47;2.25;;;;;;;16.81;100.00;101470.16;5089306;28;20457;-63
2023/07/13 22:01:31;;;;;;;6.32;2.78;;;;;;;16.75;100.00;101473.19;5094093;28;20090;-63
2023/07/13 22:03:58;;;;;;;8.95;3.13;;;;;;;16.67;100.00;101474.53;5095622;28;20040;-61
2023/07/13 22:06:27;;;;;;;7.55;2.42;;;;;;;16.69;100.00;101469.09;5089167;28;20456;-61
2023/07/13 22:08:56;;;;;;;5.35;2.47;;;;;;;16.66;100.00;101472.78;5089752;28;20044;-61
2023/07/13 22:11:24;;;;;;;3.88;2.08;;;;;;;16.75;100.00;101470.53;5085529;28;20043;-62
2023/07/13 22:13:52;;;;;;;7.80;3.17;;;;;;;16.73;100.00;101467.09;5091757;28;20838;-61
2023/07/13 22:16:25;;;;;;;5.38;1.98;;;;;;;16.70;100.00;101473.47;5086004;28;20040;-62
2023/07/13 22:18:53;;;;;;;5.53;2.60;;;;;;;16.73;100.00;101467.09;5088571;28;20379;-62
2023/07/13 22:21:21;;;;;;;7.85;2.92;;;;;;;16.80;100.00;101465.75;5088886;28;20047;-62
2023/07/13 22:23:48;;;;;;;4.68;2.58;;;;;;;16.75;100.00;101466.03;5087517;28;20357;-61
2023/07/13 22:26:24;;;;;;;4.78;2.35;;;;;;;16.75;100.00;101473.19;5088813;28;20079;-61
2023/07/13 22:28:57;;;;;;;3.97;2.22;;;;;;;16.81;100.00;101470.16;5087429;28;20043;-61
2023/07/13 22:31:24;;;;;;;3.78;2.15;;;;;;;16.80;100.00;101465.75;5082982;28;20040;-61
2023/07/13 22:33:51;;;;;;;9.02;2.67;;;;;;;16.86;100.00;101460.09;5090353;28;20060;-63
2023/07/13 22:36:18;;;;;;;4.20;2.33;;;;;;;16.82;100.00;101467.41;5095919;28;20638;-61
2023/07/13 22:38:45;;;;;;;5.05;2.13;;;;;;;16.82;100.00;101458.50;5101709;28;20051;-61
2023/07/13 22:41:14;;;;;;;4.80;2.38;;;;;;;16.76;100.00;101457.06;5090591;28;20036;-61
2023/07/13 22:43:41;;;;;;;5.25;2.15;;;;;;;16.67;100.00;101461.19;5092372;28;20047;-61
2023/07/13 22:46:13;;;;;;;3.08;2.00;;;;;;;16.55;100.00;101474.38;5095994;28;20044;-61
2023/07/13 22:48:50;;;;;;;4.65;2.03;;;;;;;16.46;100.00;101475.78;5090843;27;20083;-61
2023/07/13 22:51:19;;;;;;;4.05;1.90;;;;;;;16.46;100.00;101486.44;5090128;28;20044;-63
2023/07/13 22:53:46;;;;;;;6.25;2.97;;;;;;;16.45;100.00;101476.75;5090337;28;20127;-61
2023/07/13 22:56:13;;;;;;;3.35;2.17;;;;;;;16.41;100.00;101472.53;5103059;28;20380;-61
2023/07/13 22:58:42;;;;;;;4.65;2.38;;;;;;;16.34;100.00;101472.88;5095137;28;20091;-62
2023/07/13 23:01:21;;;;;;;3.90;2.20;;;;;;;16.28;100.00;101481.25;5102573;28;20044;-61
2023/07/13 23:03:50;;;;;;;5.68;2.63;;;;;;;16.21;100.00;101479.88;5090062;28;20134;-61
2023/07/13 23:06:22;;;;;;;5.18;2.67;;;;;;;16.16;100.00;101479.28;5101154;28;20534;-61
2023/07/13 23:08:49;;;;;;;7.03;3.20;;;;;;;16.13;100.00;101482.13;5081436;28;20407;-61
2023/07/13 23:11:21;;;;;;;6.72;2.95;;;;;;;16.14;100.00;101487.38;5088920;28;20484;-61
2023/07/13 23:13:49;;;;;;;6.05;2.22;;;;;;;16.14;100.00;101489.19;5105846;28;20096;-61
2023/07/13 23:16:18;;;;;;;6.20;2.03;;;;;;;16.06;100.00;101494.94;5090225;28;20100;-62
2023/07/13 23:18:46;;;;;;;2.78;1.75;;;;;;;16.01;100.00;101497.03;5090968;28;20063;-61
2023/07/13 23:21:14;;;;;;;5.22;2.72;;;;;;;15.98;100.00;101491.88;5089544;28;20148;-61
2023/07/13 23:23:41;;;;;;;3.40;2.08;;;;;;;15.97;100.00;101495.50;5097909;28;20132;-61
2023/07/13 23:26:27;;;;;;;5.88;2.63;;;;;;;15.96;100.00;101491.09;5091613;28;20044;-61
2023/07/13 23:28:53;;;;;;;3.50;2.25;;;;;;;15.97;100.00;101495.50;5089388;28;20506;-61
2023/07/13 23:31:26;;;;;;;3.42;2.15;;;;;;;15.99;100.00;101487.38;5084608;28;20373;-61
2023/07/13 23:33:54;;;;;;;6.00;2.78;;;;;;;15.93;100.00;101488.59;5088740;28;20052;-61
2023/07/13 23:36:22;;;;;;;4.00;2.22;;;;;;;15.94;100.00;101485.84;5089903;28;20048;-61
2023/07/13 23:38:48;;;;;;;7.35;3.05;;;;;;;15.99;100.00;101487.38;5090253;28;20056;-62
2023/07/13 23:41:18;;;;;;;5.60;2.75;;;;;;;15.94;100.00;101482.34;5086938;28;20036;-61
2023/07/13 23:43:46;;;;;;;4.85;2.22;;;;;;;15.91;100.00;101482.50;5093501;28;20536;-63
2023/07/13 23:46:32;;;;;;;5.07;2.55;;;;;;;15.89;100.00;101479.91;5083284;28;20081;-62
2023/07/13 23:49:02;;;;;;;10.02;2.97;;;;;;;15.88;100.00;101485.34;5089577;28;20055;-61
2023/07/13 23:51:29;;;;;;;4.20;2.77;;;;;;;15.84;100.00;101490.00;5090937;28;20044;-62
2023/07/13 23:53:56;;;;;;;8.52;3.42;;;;;;;15.83;100.00;101490.91;5090244;28;20353;-63
2023/07/13 23:56:24;;;;;;;6.18;2.67;;;;;;;15.81;100.00;101490.16;5094253;28;20131;-62
2023/07/13 23:58:51;;;;;;;6.47;2.53;;;;;;;15.77;100.00;101493.94;5091464;28;20060;-61
